Item Display Status Humidity-temperature Sensor

Elevation Above Sea Level: 3 m

 

Deployed Sensor

  • Serial Number: 20199515
  • NDBC Property Number: 41822
  • Start Date: 3/27/2018 (11:44:44 Z)
  • End Date: 10/15/2019 (14:40:00 Z)
Relative Humidity [%]     6 entries per hour
Showing data from 9/15/2019 (11:00:00 Z) to 9/14/2019 (00:00:01 Z)
Previous Next [ Day | 3-Days | 7-Days ]
First Last
Prev [ Day | 3-Days | 7-Days ] Next
First Last

Start Time:     :
End Time:     :     
Time (in GMT) :00 :50 :40 :30 :20 :10
Previous Next [ Day | 3-Days | 7-Days ]
First Last
Prev [ Day | 3-Days | 7-Days ] Next
First Last


123 => good data
MM => data is determined as missing
-- => data not received/configured
Back to Top Back to Top
9/15/2019 11:00 to 10:10 68.05 69.99 71.55 70.04 69.08 68.96
9/15/2019 10:00 to 9:10 68.68 68.80 70.48 68.70 71.33 70.48
9/15/2019 09:00 to 8:10 71.09 69.97 69.83 72.02 71.45 70.88
9/15/2019 08:00 to 7:10 71.81 70.24 72.30 71.55 73.86 72.24
9/15/2019 07:00 to 6:10 72.77 71.88 72.02 72.00 71.37 70.50
9/15/2019 06:00 to 5:10 70.18 70.18 70.40 68.64 67.27 67.29
9/15/2019 05:00 to 4:10 65.55 64.70 65.16 63.85 63.99 63.56
9/15/2019 04:00 to 3:10 63.97 61.58 60.35 60.25 62.23 60.47
9/15/2019 03:00 to 2:10 61.62 63.73 62.72 64.01 62.25 64.11
9/15/2019 02:00 to 1:10 60.39 60.49 63.28 64.76 62.65 63.32
9/15/2019 01:00 to 0:10 63.81 63.42 64.15 65.49 66.56 65.61
9/15/2019 00:00 to 23:10 66.21 63.54 67.00 65.49 65.28 64.70
9/14/2019 23:00 to 22:10 67.06 67.33 65.18 67.71 67.67 68.03
9/14/2019 22:00 to 21:10 69.35 68.30 68.28 66.58 65.97 66.56
9/14/2019 21:00 to 20:10 67.20 67.02 66.70 65.87 66.40 67.22
9/14/2019 20:00 to 19:10 68.34 66.92 68.58 68.56 69.99 67.20
9/14/2019 19:00 to 18:10 67.27 67.87 68.84 68.78 69.61 69.69
9/14/2019 18:00 to 17:10 69.43 71.53 71.53 72.04 71.84 72.89
9/14/2019 17:00 to 16:10 72.83 72.00 73.43 71.75 74.73 74.14
9/14/2019 16:00 to 15:10 72.97 72.87 71.88 73.23 73.21 73.37
9/14/2019 15:00 to 14:10 72.20 73.61 73.82 71.59 72.44 71.07
9/14/2019 14:00 to 13:10 70.76 71.49 71.49 70.08 69.59 71.19
9/14/2019 13:00 to 12:10 70.02 70.36 68.76 69.31 69.97 71.51
9/14/2019 12:00 to 11:10 69.77 71.63 70.14 70.12 69.87 70.34
9/14/2019 11:00 to 10:10 71.92 69.85 71.49 70.74 70.38 70.54
9/14/2019 10:00 to 9:10 72.22 71.75 71.92 71.88 71.77 71.15
9/14/2019 09:00 to 8:10 71.49 70.12 70.20 70.02 72.20 69.45
9/14/2019 08:00 to 7:10 69.55 70.46 69.53 69.41 68.72 70.02
9/14/2019 07:00 to 6:10 68.76 70.04 70.46 71.07 70.34 72.12
9/14/2019 06:00 to 5:10 70.66 70.66 69.39 69.08 69.19 66.05
9/14/2019 05:00 to 4:10 67.89 67.20 67.47 68.94 68.38 71.33
9/14/2019 04:00 to 3:10 68.44 69.89 69.55 69.37 68.92 67.67
9/14/2019 03:00 to 2:10 68.32 67.65 68.86 69.51 68.58 68.07
9/14/2019 02:00 to 1:10 70.06 69.59 69.27 70.76 70.68 70.82
9/14/2019 01:00 to 0:10 70.88 70.28 70.54 69.35 69.15 70.46

 

 

 

Air Temperature [°C]     6 entries per hour
Showing data from 9/15/2019 (11:00:00 Z) to 9/14/2019 (00:00:01 Z)
Previous Next [ Day | 3-Days | 7-Days ]
First Last
Prev [ Day | 3-Days | 7-Days ] Next
First Last

Start Time:     :
End Time:     :     
Time (in GMT) :00 :50 :40 :30 :20 :10
Previous Next [ Day | 3-Days | 7-Days ]
First Last
Prev [ Day | 3-Days | 7-Days ] Next
First Last


123 => good data
MM => data is determined as missing
-- => data not received/configured
Back to Top Back to Top
9/15/2019 11:00 to 10:10 28.99 28.96 28.96 28.88 28.94 28.96
9/15/2019 10:00 to 9:10 28.99 29.07 28.89 28.99 28.96 29.09
9/15/2019 09:00 to 8:10 28.96 28.98 28.91 28.95 29.03 28.87
9/15/2019 08:00 to 7:10 28.96 28.88 29.02 28.93 29.01 28.81
9/15/2019 07:00 to 6:10 28.84 28.85 28.84 28.90 28.91 28.82
9/15/2019 06:00 to 5:10 28.84 28.88 28.97 28.99 28.97 29.02
9/15/2019 05:00 to 4:10 29.11 29.17 29.12 29.03 29.11 29.10
9/15/2019 04:00 to 3:10 29.16 29.13 29.14 29.16 29.14 29.25
9/15/2019 03:00 to 2:10 29.16 29.03 29.09 29.08 29.18 29.11
9/15/2019 02:00 to 1:10 29.17 29.13 29.13 29.10 29.21 29.09
9/15/2019 01:00 to 0:10 29.09 29.21 29.06 29.05 29.09 29.02
9/15/2019 00:00 to 23:10 28.95 29.08 29.09 28.96 28.97 29.02
9/14/2019 23:00 to 22:10 28.93 28.95 28.92 29.01 29.02 29.00
9/14/2019 22:00 to 21:10 28.96 28.95 28.99 29.07 29.03 29.07
9/14/2019 21:00 to 20:10 29.11 29.14 29.11 29.18 29.22 29.21
9/14/2019 20:00 to 19:10 29.21 29.16 29.16 29.14 29.16 29.32
9/14/2019 19:00 to 18:10 29.19 29.10 29.22 29.06 28.99 28.79
9/14/2019 18:00 to 17:10 28.75 28.78 28.70 28.66 28.67 28.63
9/14/2019 17:00 to 16:10 28.64 28.65 28.65 28.69 28.74 28.65
9/14/2019 16:00 to 15:10 28.63 28.70 28.67 28.73 28.72 28.79
9/14/2019 15:00 to 14:10 28.73 28.84 28.80 28.83 28.80 28.85
9/14/2019 14:00 to 13:10 28.88 28.86 28.86 28.82 28.91 28.92
9/14/2019 13:00 to 12:10 28.90 28.92 28.92 28.87 28.88 28.97
9/14/2019 12:00 to 11:10 28.94 28.93 28.95 28.95 28.94 28.96
9/14/2019 11:00 to 10:10 29.01 28.95 29.00 28.88 28.86 28.94
9/14/2019 10:00 to 9:10 28.93 28.89 28.93 28.84 28.83 28.86
9/14/2019 09:00 to 8:10 28.92 28.84 28.78 28.79 29.00 28.83
9/14/2019 08:00 to 7:10 28.79 28.83 28.80 28.83 28.85 28.81
9/14/2019 07:00 to 6:10 28.81 28.87 28.78 28.80 28.67 28.88
9/14/2019 06:00 to 5:10 28.79 28.90 28.92 29.03 29.03 29.09
9/14/2019 05:00 to 4:10 29.12 29.22 29.21 29.09 29.06 29.13
9/14/2019 04:00 to 3:10 28.90 28.95 28.88 28.91 29.09 29.09
9/14/2019 03:00 to 2:10 29.14 29.07 29.00 29.06 29.02 29.02
9/14/2019 02:00 to 1:10 28.95 28.84 28.79 28.84 28.91 28.89
9/14/2019 01:00 to 0:10 28.82 28.82 28.94 28.98 28.99 29.06